Main page
METAR-TAF:

METAR-TAF

Airports :

Mehamn Airport

Gamvik, Norway

latitude: 71-02N, longitude: 027-50E, elevation: 1 m

Current weather observation

The report was made 3 hours and 7 minutes ago, at 22:50 UTC
Wind 11 kt from the West/Northwest
Temperature -3°C
Humidity 58%
Pressure 978 hPa
Visibility 10 km or more
Few clouds at a height of 3900 ft

METAR: ENMH 082250Z 29011KT 9999 FEW039 M03/M10 Q0978

Time: 02:57 (01:57 UTC)


TAF: missing

Weather observations and forecasts of more than 4000 airports (METAR and TAF reports).

The available stations are represented by yellow and red dots on the map.

Hover mouse over dot to see the name of the station.

Then click to see weather observations and forecasts.

To change the map : click on the green buttons with a black cross to zoom in, on the green button with a dash to zoom out, or on the green arrows for adjacent maps.


METAR-TAF: